createdAt,value
2023-04-06T00:00:42.365Z,11.40
2023-04-06T00:03:25.614Z,10.80
2023-04-06T00:05:54.867Z,11.40
2023-04-06T00:08:24.744Z,11.70
2023-04-06T00:10:52.898Z,10.80
2023-04-06T00:13:21.726Z,10.80
2023-04-06T00:15:50.147Z,10.80
2023-04-06T00:18:18.290Z,11.00
2023-04-06T00:20:46.798Z,9.70
2023-04-06T00:23:15.257Z,10.60
2023-04-06T00:25:44.662Z,10.90
2023-04-06T00:28:12.882Z,9.90
2023-04-06T00:30:42.157Z,9.70
2023-04-06T00:33:10.613Z,10.60
2023-04-06T00:35:39.966Z,10.10
2023-04-06T00:38:08.316Z,9.70
2023-04-06T00:40:36.659Z,9.90
2023-04-06T00:43:05.286Z,9.90
2023-04-06T00:45:34.372Z,9.40
2023-04-06T00:48:03.190Z,9.20
2023-04-06T00:50:31.543Z,9.30
2023-04-06T00:53:00.861Z,9.50
2023-04-06T00:55:32.273Z,9.50
2023-04-06T00:58:01.693Z,10.50
2023-04-06T01:00:31.969Z,9.00
2023-04-06T01:03:15.175Z,9.40
2023-04-06T01:05:45.492Z,9.60
2023-04-06T01:08:21.086Z,9.00
2023-04-06T01:10:50.176Z,9.60
2023-04-06T01:13:25.985Z,9.40
2023-04-06T01:15:56.330Z,9.30
2023-04-06T01:18:32.942Z,9.10
2023-04-06T01:21:21.393Z,9.80
2023-04-06T01:24:02.354Z,8.90
2023-04-06T01:26:35.917Z,10.70
2023-04-06T01:29:08.047Z,9.50
2023-04-06T01:31:36.497Z,9.00
2023-04-06T01:34:04.644Z,10.60
2023-04-06T01:36:32.834Z,10.20
2023-04-06T01:39:15.188Z,10.90
2023-04-06T01:41:43.715Z,10.70
2023-04-06T01:44:13.120Z,10.60
2023-04-06T01:46:42.648Z,10.90
2023-04-06T01:49:12.777Z,9.70
2023-04-06T01:51:42.878Z,10.90
2023-04-06T01:54:14.289Z,10.60
2023-04-06T01:57:02.613Z,10.90
2023-04-06T01:59:34.252Z,11.20
2023-04-06T02:02:07.541Z,10.30
2023-04-06T02:04:36.469Z,11.60
2023-04-06T02:07:12.807Z,11.70
2023-04-06T02:09:41.903Z,11.40
2023-04-06T02:12:13.614Z,11.50
2023-04-06T02:14:42.239Z,10.90
2023-04-06T02:17:12.317Z,12.00
2023-04-06T02:19:40.421Z,11.70
2023-04-06T02:22:13.708Z,11.30
2023-04-06T02:24:43.265Z,11.40
2023-04-06T02:27:12.105Z,11.60
2023-04-06T02:29:41.106Z,12.10
2023-04-06T02:32:09.390Z,11.10
2023-04-06T02:34:37.662Z,11.10
2023-04-06T02:37:06.915Z,11.40
2023-04-06T02:39:35.585Z,10.70
2023-04-06T02:42:04.555Z,11.50
2023-04-06T02:44:32.812Z,11.40
2023-04-06T02:47:01.106Z,11.70
2023-04-06T02:49:29.977Z,11.70
2023-04-06T02:51:59.684Z,12.30
2023-04-06T02:54:31.432Z,10.90
2023-04-06T02:56:59.969Z,12.30
2023-04-06T02:59:35.619Z,11.50
2023-04-06T03:02:18.425Z,10.90
2023-04-06T03:04:48.339Z,10.90
2023-04-06T03:07:24.089Z,10.40
2023-04-06T03:09:54.395Z,10.80
2023-04-06T03:12:23.272Z,11.70
2023-04-06T03:15:11.952Z,10.60
2023-04-06T03:17:42.178Z,11.10
2023-04-06T03:20:14.410Z,10.80
2023-04-06T03:22:43.878Z,11.00
2023-04-06T03:25:13.896Z,10.70
2023-04-06T03:27:42.415Z,11.00
2023-04-06T03:30:18.731Z,10.70
2023-04-06T03:32:49.224Z,10.60
2023-04-06T03:35:17.640Z,10.40
2023-04-06T03:37:48.661Z,11.00
2023-04-06T03:40:17.652Z,10.80
2023-04-06T03:42:45.827Z,11.20
2023-04-06T03:45:15.735Z,10.30
2023-04-06T03:47:52.694Z,11.30
2023-04-06T03:50:21.520Z,10.80
2023-04-06T03:52:49.757Z,11.10
2023-04-06T03:55:18.034Z,10.80
2023-04-06T03:57:46.211Z,11.20
2023-04-06T04:00:16.694Z,10.40
2023-04-06T04:02:46.048Z,12.20
2023-04-06T04:05:14.779Z,11.20
2023-04-06T04:07:44.757Z,11.50
2023-04-06T04:10:15.638Z,12.00
2023-04-06T04:12:44.171Z,11.90
2023-04-06T04:15:18.745Z,10.80
2023-04-06T04:18:00.520Z,11.40
2023-04-06T04:20:29.617Z,10.60
2023-04-06T04:22:58.328Z,11.10
2023-04-06T04:25:27.212Z,10.80
2023-04-06T04:27:56.199Z,10.60
2023-04-06T04:30:25.753Z,11.20
2023-04-06T04:32:54.991Z,11.20
2023-04-06T04:35:24.193Z,11.20
2023-04-06T04:37:54.357Z,10.10
2023-04-06T04:40:22.666Z,11.20
2023-04-06T04:43:05.468Z,10.80
2023-04-06T04:45:37.646Z,11.00
2023-04-06T04:48:16.432Z,11.00
2023-04-06T04:50:57.838Z,11.80
2023-04-06T04:53:29.103Z,11.60
2023-04-06T04:56:06.454Z,11.80
2023-04-06T04:58:34.746Z,12.20
2023-04-06T05:01:02.987Z,12.10
2023-04-06T05:03:31.758Z,12.70
2023-04-06T05:06:06.829Z,12.20
2023-04-06T05:08:37.276Z,11.40
2023-04-06T05:11:06.132Z,11.80
2023-04-06T05:16:15.954Z,10.80
2023-04-06T05:18:54.725Z,11.10
2023-04-06T05:21:23.614Z,9.70
2023-04-06T05:23:57.983Z,11.50
2023-04-06T05:26:26.507Z,10.60
2023-04-06T05:28:57.346Z,10.10
2023-04-06T05:31:26.729Z,9.70
2023-04-06T05:33:56.322Z,9.50
2023-04-06T05:36:36.685Z,9.00
2023-04-06T05:39:09.852Z,10.50
2023-04-06T05:41:56.748Z,9.30
2023-04-06T05:44:42.286Z,10.60
2023-04-06T05:47:13.740Z,9.00
2023-04-06T05:49:45.123Z,9.40
2023-04-06T05:52:18.687Z,9.20
2023-04-06T05:54:49.429Z,9.10
2023-04-06T05:57:17.925Z,9.30
2023-04-06T05:59:46.840Z,9.20
2023-04-06T06:02:16.296Z,9.40
2023-04-06T06:04:47.621Z,9.80
2023-04-06T06:07:16.370Z,9.90
2023-04-06T06:09:49.411Z,9.80
2023-04-06T06:12:31.750Z,8.70
2023-04-06T06:15:01.710Z,8.90
2023-04-06T06:17:30.933Z,8.50
2023-04-06T06:19:59.703Z,14.60
2023-04-06T06:22:29.224Z,9.30
2023-04-06T06:24:57.771Z,8.60
2023-04-06T06:27:25.998Z,9.50
2023-04-06T06:29:54.537Z,9.40
2023-04-06T06:32:24.170Z,17.60
2023-04-06T06:34:53.507Z,9.10
2023-04-06T06:37:22.098Z,8.70
2023-04-06T06:39:50.327Z,9.30
2023-04-06T06:42:18.899Z,8.80
2023-04-06T06:45:00.041Z,16.60
2023-04-06T06:47:28.257Z,10.40
2023-04-06T06:49:56.715Z,8.40
2023-04-06T06:52:27.013Z,8.70
2023-04-06T06:54:57.169Z,10.40
2023-04-06T06:57:27.141Z,7.80
2023-04-06T06:59:55.329Z,9.40
2023-04-06T07:02:23.935Z,9.40
2023-04-06T07:04:52.193Z,9.60
2023-04-06T07:07:21.691Z,8.70
2023-04-06T07:09:49.891Z,8.60
2023-04-06T07:12:18.300Z,9.30
2023-04-06T07:14:46.519Z,8.20
2023-04-06T07:17:15.566Z,7.20
2023-04-06T07:19:43.990Z,8.40
2023-04-06T07:22:13.255Z,7.70
2023-04-06T07:24:41.610Z,8.00
2023-04-06T07:27:10.158Z,8.10
2023-04-06T07:29:39.823Z,7.50
2023-04-06T07:32:08.499Z,8.00
2023-04-06T07:34:38.074Z,7.10
2023-04-06T07:37:06.331Z,8.30
2023-04-06T07:39:35.734Z,8.10
2023-04-06T07:42:04.109Z,7.80
2023-04-06T07:44:32.489Z,7.50
2023-04-06T07:47:01.450Z,7.80
2023-04-06T07:49:29.672Z,7.40
2023-04-06T07:51:57.818Z,7.20
2023-04-06T07:54:27.002Z,7.10
2023-04-06T07:56:55.116Z,7.20
2023-04-06T07:59:23.265Z,7.50
2023-04-06T08:01:51.635Z,6.90
2023-04-06T08:04:21.484Z,7.80
2023-04-06T08:06:50.001Z,7.50
2023-04-06T08:09:21.563Z,7.30
2023-04-06T08:11:50.004Z,7.60
2023-04-06T08:14:18.092Z,6.10
2023-04-06T08:16:46.953Z,7.30
2023-04-06T08:19:18.239Z,7.80
2023-04-06T08:21:47.311Z,8.10
2023-04-06T08:24:15.961Z,7.40
2023-04-06T08:26:44.445Z,8.00
2023-04-06T08:29:14.167Z,8.40
2023-04-06T08:31:42.528Z,7.60
2023-04-06T08:34:13.799Z,7.70
2023-04-06T08:36:42.778Z,8.10
2023-04-06T08:39:10.897Z,8.70
2023-04-06T08:41:39.019Z,7.80
2023-04-06T08:44:07.370Z,7.30
2023-04-06T08:46:35.863Z,7.80
2023-04-06T08:49:07.978Z,8.40
2023-04-06T08:51:37.678Z,7.40
2023-04-06T08:54:08.434Z,8.30
2023-04-06T08:56:39.308Z,8.30
2023-04-06T08:59:07.541Z,8.60
2023-04-06T09:01:39.988Z,8.90
2023-04-06T09:04:13.043Z,8.70
2023-04-06T09:06:42.477Z,11.30
2023-04-06T09:09:10.928Z,10.90
2023-04-06T09:11:53.004Z,13.20
2023-04-06T09:14:38.783Z,13.30
2023-04-06T09:17:07.320Z,12.40
2023-04-06T09:19:35.517Z,11.10
2023-04-06T09:22:08.578Z,8.80
2023-04-06T09:24:50.584Z,9.00
2023-04-06T09:27:18.928Z,9.10
2023-04-06T09:29:47.090Z,7.90
2023-04-06T09:32:19.412Z,8.30
2023-04-06T09:34:50.920Z,8.30
2023-04-06T09:37:20.225Z,8.60
2023-04-06T09:39:53.341Z,10.50
2023-04-06T09:42:28.159Z,9.90
2023-04-06T09:44:56.381Z,9.90
2023-04-06T09:47:29.453Z,10.90
2023-04-06T09:49:59.368Z,10.30
2023-04-06T09:52:31.426Z,12.30
2023-04-06T09:55:02.421Z,13.70
2023-04-06T09:57:51.868Z,13.00
2023-04-06T10:00:22.324Z,9.50
2023-04-06T10:03:22.455Z,7.10
2023-04-06T10:05:59.592Z,7.50
2023-04-06T10:08:31.736Z,9.70
2023-04-06T10:11:04.432Z,12.20
2023-04-06T10:13:32.756Z,12.20
2023-04-06T10:16:02.401Z,10.80
2023-04-06T10:18:33.897Z,10.10
2023-04-06T10:21:09.749Z,9.30
2023-04-06T10:23:55.580Z,8.70
2023-04-06T10:26:23.931Z,7.80
2023-04-06T10:28:52.300Z,9.00
2023-04-06T10:31:29.242Z,7.40
2023-04-06T10:33:59.422Z,5.60
2023-04-06T10:36:37.312Z,6.50
2023-04-06T10:39:06.905Z,6.50
2023-04-06T10:41:35.616Z,6.90
2023-04-06T10:44:04.025Z,8.20
2023-04-06T10:46:35.088Z,7.40
2023-04-06T10:49:15.542Z,7.80
2023-04-06T10:51:43.702Z,7.80
2023-04-06T10:54:11.956Z,8.00
2023-04-06T10:56:41.028Z,7.30
2023-04-06T10:59:09.161Z,8.00
2023-04-06T11:01:38.474Z,8.30
2023-04-06T11:04:09.043Z,8.80
2023-04-06T11:06:37.248Z,9.20
2023-04-06T11:09:05.374Z,9.30
2023-04-06T11:11:33.956Z,8.90
2023-04-06T11:14:02.319Z,8.30
2023-04-06T11:16:33.353Z,7.20
2023-04-06T11:19:02.736Z,7.50
2023-04-06T11:21:45.017Z,7.90
2023-04-06T11:24:23.830Z,9.00
2023-04-06T11:26:58.006Z,9.50
2023-04-06T11:29:30.936Z,7.70
2023-04-06T11:32:00.202Z,8.70
2023-04-06T11:34:30.501Z,7.90
2023-04-06T11:37:00.870Z,7.70
2023-04-06T11:39:30.555Z,8.20
2023-04-06T11:42:08.974Z,7.70
2023-04-06T11:44:47.216Z,9.30
2023-04-06T11:47:17.706Z,9.60
2023-04-06T11:49:47.569Z,10.10
2023-04-06T11:52:25.983Z,10.80
2023-04-06T11:54:55.103Z,11.50
2023-04-06T11:57:26.626Z,11.80
2023-04-06T11:59:55.107Z,11.10
2023-04-06T12:02:23.435Z,10.20
2023-04-06T12:04:52.414Z,10.10
2023-04-06T12:07:21.562Z,10.40
2023-04-06T12:09:49.834Z,10.50
2023-04-06T12:12:17.957Z,10.60
2023-04-06T12:14:46.136Z,11.00
2023-04-06T12:17:14.914Z,10.20
2023-04-06T12:19:43.030Z,11.40
2023-04-06T12:22:11.716Z,12.10
2023-04-06T12:24:40.605Z,13.60
2023-04-06T12:27:10.909Z,14.70
2023-04-06T12:29:40.016Z,15.40
2023-04-06T12:32:08.205Z,15.20
2023-04-06T12:34:36.793Z,16.10
2023-04-06T12:37:05.653Z,17.30
2023-04-06T12:39:36.716Z,17.00
2023-04-06T12:42:05.864Z,17.20
2023-04-06T12:44:34.108Z,14.90
2023-04-06T12:47:06.180Z,15.60
2023-04-06T12:49:34.698Z,15.00
2023-04-06T12:52:06.877Z,15.10
2023-04-06T12:54:37.380Z,16.80
2023-04-06T12:57:05.517Z,16.40
2023-04-06T12:59:35.751Z,15.50
2023-04-06T13:02:05.242Z,15.30
2023-04-06T13:04:33.681Z,14.50
2023-04-06T13:07:06.572Z,12.60
2023-04-06T13:09:35.389Z,12.90
2023-04-06T13:12:04.071Z,10.70
2023-04-06T13:14:33.104Z,11.20
2023-04-06T13:17:02.107Z,8.40
2023-04-06T13:19:32.373Z,7.40
2023-04-06T13:22:01.658Z,8.20
2023-04-06T13:24:30.639Z,8.30
2023-04-06T13:26:59.441Z,8.70
2023-04-06T13:29:28.383Z,9.70
2023-04-06T13:31:57.317Z,10.00
2023-04-06T13:34:25.834Z,11.00
2023-04-06T13:36:54.011Z,11.90
2023-04-06T13:39:29.936Z,13.80
2023-04-06T13:41:58.559Z,13.80
2023-04-06T13:44:27.214Z,14.00
2023-04-06T13:46:57.761Z,14.80
2023-04-06T13:49:26.199Z,15.30
2023-04-06T13:51:56.163Z,14.60
2023-04-06T13:54:24.473Z,13.10
2023-04-06T13:56:52.763Z,13.10
2023-04-06T13:59:20.986Z,12.90
2023-04-06T14:01:49.323Z,13.30
2023-04-06T14:04:17.901Z,13.10
2023-04-06T14:06:47.386Z,12.00
2023-04-06T14:09:15.938Z,12.60
2023-04-06T14:11:48.148Z,12.30
2023-04-06T14:14:16.244Z,12.70
2023-04-06T14:16:49.839Z,12.10
2023-04-06T14:19:22.084Z,11.20
2023-04-06T14:21:51.753Z,11.20
2023-04-06T14:24:21.944Z,11.40
2023-04-06T14:26:50.262Z,11.00
2023-04-06T14:29:18.806Z,11.70
2023-04-06T14:31:48.477Z,11.20
2023-04-06T14:34:18.088Z,11.30
2023-04-06T14:36:47.453Z,12.00
2023-04-06T14:39:15.770Z,12.40
2023-04-06T14:41:43.999Z,12.60
2023-04-06T14:44:13.488Z,11.80
2023-04-06T14:46:42.430Z,12.70
2023-04-06T14:49:10.846Z,13.30
2023-04-06T14:51:39.000Z,12.10
2023-04-06T14:54:07.222Z,14.20
2023-04-06T14:56:36.095Z,12.70
2023-04-06T14:59:06.731Z,12.50
2023-04-06T15:01:37.012Z,12.90
2023-04-06T15:04:05.641Z,13.90
2023-04-06T15:06:34.541Z,15.20
2023-04-06T15:09:03.849Z,16.10
2023-04-06T15:11:32.040Z,16.00
2023-04-06T15:14:01.191Z,15.40
2023-04-06T15:16:33.579Z,15.00
2023-04-06T15:19:02.843Z,15.00
2023-04-06T15:21:33.861Z,15.80
2023-04-06T15:24:02.338Z,17.00
2023-04-06T15:26:30.793Z,16.40
2023-04-06T15:29:00.467Z,15.80
2023-04-06T15:31:37.720Z,16.50
2023-04-06T15:34:09.298Z,15.40
2023-04-06T15:36:39.088Z,15.50
2023-04-06T15:39:09.973Z,17.30
2023-04-06T15:41:39.182Z,16.20
2023-04-06T15:44:07.457Z,14.50
2023-04-06T15:46:36.766Z,12.10
2023-04-06T15:49:05.151Z,12.50
2023-04-06T15:51:33.887Z,14.30
2023-04-06T15:54:02.022Z,13.10
2023-04-06T15:56:30.613Z,12.40
2023-04-06T15:59:01.563Z,12.30
2023-04-06T16:01:31.283Z,12.00
2023-04-06T16:04:00.549Z,15.40
2023-04-06T16:06:28.882Z,14.50
2023-04-06T16:08:57.709Z,15.10
2023-04-06T16:11:26.276Z,16.90
2023-04-06T16:13:55.622Z,14.00
2023-04-06T16:16:24.050Z,15.90
2023-04-06T16:18:52.404Z,16.60
2023-04-06T16:21:20.526Z,14.70
2023-04-06T16:23:48.859Z,15.50
2023-04-06T16:26:20.143Z,15.60
2023-04-06T16:28:48.477Z,14.60
2023-04-06T16:31:21.358Z,15.10
2023-04-06T16:33:56.202Z,14.70
2023-04-06T16:36:28.693Z,15.70
2023-04-06T16:38:57.443Z,16.00
2023-04-06T16:41:27.040Z,17.10
2023-04-06T16:43:57.664Z,17.80
2023-04-06T16:46:32.867Z,16.00
2023-04-06T16:49:01.055Z,18.00
2023-04-06T16:51:29.558Z,17.20
2023-04-06T16:53:57.702Z,15.90
2023-04-06T16:56:27.767Z,12.80
2023-04-06T16:58:56.373Z,12.70
2023-04-06T17:01:26.234Z,9.90
2023-04-06T17:03:54.788Z,8.60
2023-04-06T17:06:23.845Z,8.90
2023-04-06T17:08:53.721Z,8.80
2023-04-06T17:11:28.715Z,8.70
2023-04-06T17:14:04.285Z,7.90
2023-04-06T17:16:32.886Z,8.20
2023-04-06T17:19:01.274Z,8.90
2023-04-06T17:21:29.818Z,8.50
2023-04-06T17:23:57.837Z,7.40
2023-04-06T17:26:26.685Z,7.40
2023-04-06T17:28:54.737Z,6.70
2023-04-06T17:31:22.916Z,7.30
2023-04-06T17:33:52.837Z,7.10
2023-04-06T17:36:21.986Z,6.90
2023-04-06T17:38:52.691Z,6.90
2023-04-06T17:41:21.865Z,6.50
2023-04-06T17:43:51.598Z,6.40
2023-04-06T17:46:21.418Z,6.00
2023-04-06T17:48:51.046Z,6.30
2023-04-06T17:51:20.701Z,6.70
2023-04-06T17:53:49.032Z,6.90
2023-04-06T17:56:17.431Z,6.60
2023-04-06T17:58:45.715Z,7.20
2023-04-06T18:01:20.482Z,6.60
2023-04-06T18:03:49.016Z,6.80
2023-04-06T18:06:17.775Z,7.50
2023-04-06T18:08:46.296Z,7.00
2023-04-06T18:11:18.493Z,8.40
2023-04-06T18:13:46.859Z,10.10
2023-04-06T18:16:20.276Z,10.90
2023-04-06T18:18:49.560Z,15.40
2023-04-06T18:21:17.636Z,17.30
2023-04-06T18:23:49.505Z,16.20
2023-04-06T18:26:18.441Z,17.00
2023-04-06T18:28:46.983Z,16.40
2023-04-06T18:31:15.145Z,14.60
2023-04-06T18:33:44.164Z,13.30
2023-04-06T18:36:14.718Z,16.00
2023-04-06T18:38:44.634Z,14.20
2023-04-06T18:41:14.704Z,14.60
2023-04-06T18:43:43.245Z,14.50
2023-04-06T18:46:12.924Z,13.70
2023-04-06T18:48:42.243Z,12.90
2023-04-06T18:51:10.695Z,13.30
2023-04-06T18:53:40.077Z,13.60
2023-04-06T18:56:19.059Z,13.10
2023-04-06T18:58:49.225Z,12.00
2023-04-06T19:01:24.468Z,10.00
2023-04-06T19:03:53.930Z,9.50
2023-04-06T19:06:22.740Z,9.60
2023-04-06T19:08:50.893Z,8.60
2023-04-06T19:11:23.384Z,8.80
2023-04-06T19:13:53.661Z,8.90
2023-04-06T19:16:26.562Z,8.80
2023-04-06T19:18:56.653Z,7.90
2023-04-06T19:21:26.042Z,10.40
2023-04-06T19:23:56.684Z,11.70
2023-04-06T19:26:28.141Z,16.50
2023-04-06T19:28:56.282Z,17.60
2023-04-06T19:31:27.136Z,19.90
2023-04-06T19:33:55.767Z,20.10
2023-04-06T19:36:26.235Z,20.10
2023-04-06T19:38:54.804Z,19.40
2023-04-06T19:41:23.249Z,18.30
2023-04-06T19:43:51.442Z,17.50
2023-04-06T19:46:20.136Z,18.60
2023-04-06T19:48:48.272Z,17.00
2023-04-06T19:51:16.574Z,19.10
2023-04-06T19:53:45.406Z,16.10
2023-04-06T19:56:13.749Z,16.40
2023-04-06T19:58:42.247Z,17.20
2023-04-06T20:01:10.541Z,16.90
2023-04-06T20:03:39.063Z,17.30
2023-04-06T20:06:07.258Z,15.90
2023-04-06T20:08:35.510Z,16.90
2023-04-06T20:11:07.715Z,17.20
2023-04-06T20:13:37.780Z,18.10
2023-04-06T20:16:05.922Z,14.80
2023-04-06T20:18:41.286Z,14.40
2023-04-06T20:21:10.047Z,13.80
2023-04-06T20:23:38.142Z,12.30
2023-04-06T20:26:08.713Z,12.20
2023-04-06T20:28:37.651Z,12.80
2023-04-06T20:31:07.042Z,13.70
2023-04-06T20:33:36.030Z,12.40
2023-04-06T20:36:04.612Z,13.00
2023-04-06T20:38:34.188Z,12.70
2023-04-06T20:41:02.739Z,11.80
2023-04-06T20:43:31.930Z,11.00
2023-04-06T20:46:02.713Z,11.40
2023-04-06T20:48:33.627Z,9.60
2023-04-06T20:51:04.693Z,9.90
2023-04-06T20:53:33.137Z,8.70
2023-04-06T20:56:02.114Z,8.00
2023-04-06T20:58:30.977Z,8.00
2023-04-06T21:00:59.082Z,6.80
2023-04-06T21:03:42.618Z,6.60
2023-04-06T21:06:11.389Z,7.60
2023-04-06T21:08:39.549Z,6.90
2023-04-06T21:11:12.547Z,6.60
2023-04-06T21:13:41.247Z,6.60
2023-04-06T21:16:10.402Z,6.90
2023-04-06T21:18:38.926Z,6.80
2023-04-06T21:21:07.601Z,6.60
2023-04-06T21:23:35.910Z,6.40
2023-04-06T21:26:04.203Z,6.50
2023-04-06T21:28:32.652Z,7.30
2023-04-06T21:31:02.309Z,6.60
2023-04-06T21:33:37.656Z,6.90
2023-04-06T21:36:07.134Z,6.00
2023-04-06T21:38:36.708Z,6.50
2023-04-06T21:41:04.919Z,6.70
2023-04-06T21:43:33.885Z,6.50
2023-04-06T21:46:02.581Z,6.70
2023-04-06T21:48:31.703Z,6.10
2023-04-06T21:50:59.883Z,7.40
2023-04-06T21:53:28.159Z,7.00
2023-04-06T21:55:56.266Z,7.30
2023-04-06T21:58:25.184Z,8.40
2023-04-06T22:00:53.737Z,7.10
2023-04-06T22:03:22.522Z,7.80
2023-04-06T22:05:52.749Z,8.00
2023-04-06T22:08:33.741Z,8.80
2023-04-06T22:11:08.195Z,9.30
2023-04-06T22:13:36.583Z,8.20
2023-04-06T22:16:05.366Z,8.50
2023-04-06T22:18:38.049Z,8.10
2023-04-06T22:21:07.191Z,7.80
2023-04-06T22:23:36.082Z,6.80
2023-04-06T22:26:04.443Z,7.30
2023-04-06T22:28:33.406Z,7.50
2023-04-06T22:31:01.760Z,7.90
2023-04-06T22:33:30.751Z,7.00
2023-04-06T22:35:59.461Z,6.20
2023-04-06T22:38:27.957Z,7.20
2023-04-06T22:40:56.444Z,5.70
2023-04-06T22:43:24.913Z,6.20
2023-04-06T22:45:53.199Z,6.30
2023-04-06T22:48:21.545Z,5.90
2023-04-06T22:50:50.025Z,6.10
2023-04-06T22:53:18.486Z,6.00
2023-04-06T22:55:46.712Z,5.70
2023-04-06T22:58:14.962Z,5.80
2023-04-06T23:00:45.166Z,5.80
2023-04-06T23:03:25.998Z,5.90
2023-04-06T23:05:54.492Z,6.20
2023-04-06T23:08:22.485Z,6.20
2023-04-06T23:10:56.195Z,6.10
2023-04-06T23:13:25.467Z,6.40
2023-04-06T23:15:53.639Z,6.10
2023-04-06T23:18:22.688Z,6.60
2023-04-06T23:20:51.056Z,5.60
2023-04-06T23:23:19.259Z,5.60
2023-04-06T23:25:48.096Z,5.70
2023-04-06T23:28:16.176Z,5.70
2023-04-06T23:30:46.141Z,5.10
2023-04-06T23:33:15.002Z,5.30
2023-04-06T23:35:43.282Z,5.40
2023-04-06T23:38:11.679Z,6.10
2023-04-06T23:40:39.706Z,5.50
2023-04-06T23:43:07.765Z,5.60
2023-04-06T23:45:36.109Z,5.30
2023-04-06T23:48:10.537Z,5.80
2023-04-06T23:50:38.901Z,6.40
2023-04-06T23:53:07.259Z,5.60
2023-04-06T23:55:35.591Z,6.30
2023-04-06T23:58:04.304Z,5.80
